Time;durP1;ratioP1;P1;durP2;ratioP2;P2;SDS_P1;SDS_P2;PMS_P1;PMS_P2;Temp;Humidity;BMP_temperature;BMP_pressure;BME280_temperature;BME280_humidity;BME280_pressure;Samples;Min_cycle;Max_cycle;Signal;HPM_P1;HPM_P2
2021/07/13 00:02:04;;;;;;;14.83;8.75;;;;;;;19.43;92.39;99304.36;1763109;81;21047;-66
2021/07/13 00:04:31;;;;;;;12.53;8.25;;;;;;;19.40;92.33;99301.13;1763014;81;20967;-66
2021/07/13 00:06:57;;;;;;;10.20;9.05;;;;;;;19.36;91.99;99294.45;1763214;81;21019;-66
2021/07/13 00:09:25;;;;;;;12.28;9.55;;;;;;;19.30;91.51;99293.14;1763249;81;21428;-66
2021/07/13 00:11:52;;;;;;;9.58;8.78;;;;;;;19.23;91.37;99291.46;1763352;81;21403;-66
2021/07/13 00:14:18;;;;;;;9.28;8.53;;;;;;;19.19;91.62;99285.23;1763407;81;21132;-66
2021/07/13 00:16:46;;;;;;;23.95;9.75;;;;;;;19.15;92.16;99278.55;1763459;81;21010;-66
2021/07/13 00:19:13;;;;;;;9.93;8.70;;;;;;;19.10;92.49;99274.95;1763288;81;21447;-66
2021/07/13 00:21:39;;;;;;;17.73;10.18;;;;;;;19.06;92.70;99270.04;1763123;81;20975;-66
2021/07/13 00:24:08;;;;;;;10.30;9.30;;;;;;;18.98;92.92;99270.66;1763248;81;21478;-67
2021/07/13 00:26:36;;;;;;;15.05;9.60;;;;;;;18.93;93.19;99275.45;1763147;81;21138;-66
2021/07/13 00:29:06;;;;;;;10.60;9.50;;;;;;;18.88;93.31;99273.17;1724454;81;21408;-66
2021/07/13 00:31:34;;;;;;;10.55;9.55;;;;;;;18.84;93.45;99271.73;1763406;81;20982;-66
2021/07/13 00:34:01;;;;;;;10.95;9.50;;;;;;;18.81;93.54;99281.67;1763298;81;21529;-66
2021/07/13 00:36:27;;;;;;;11.40;9.88;;;;;;;18.74;93.57;99285.76;1763436;81;21010;-66
2021/07/13 00:38:53;;;;;;;13.20;9.00;;;;;;;18.72;93.97;99287.67;1763288;81;21044;-66
2021/07/13 00:41:20;;;;;;;10.32;9.18;;;;;;;18.70;93.79;99296.17;1763072;81;21027;-66
2021/07/13 00:43:48;;;;;;;10.25;8.78;;;;;;;18.66;94.27;99291.61;1763431;81;21077;-66
2021/07/13 00:46:15;;;;;;;14.80;10.68;;;;;;;18.65;94.41;99299.63;1763362;81;21502;-66
2021/07/13 00:48:42;;;;;;;11.38;9.48;;;;;;;18.62;94.35;99296.75;1763077;81;20953;-66
2021/07/13 00:51:10;;;;;;;11.33;8.50;;;;;;;18.59;94.17;99291.72;1763394;81;21103;-66
2021/07/13 00:53:41;;;;;;;10.28;8.65;;;;;;;18.57;94.22;99290.52;1763131;81;21030;-66
2021/07/13 00:56:08;;;;;;;11.00;9.23;;;;;;;18.55;94.36;99292.42;1762503;81;20991;-66
2021/07/13 00:58:34;;;;;;;10.45;9.33;;;;;;;18.52;94.68;99297.92;1713113;81;21463;-66
2021/07/13 01:01:04;;;;;;;11.50;9.15;;;;;;;18.50;95.05;99293.25;1763159;81;20931;-66
2021/07/13 01:03:30;;;;;;;10.15;9.00;;;;;;;18.50;95.36;99293.73;1763177;81;21842;-66
2021/07/13 01:05:57;;;;;;;13.40;9.00;;;;;;;18.48;95.32;99289.05;1749157;81;21065;-66
2021/07/13 01:08:40;;;;;;;10.13;9.23;;;;;;;18.46;95.54;99297.06;1746890;82;20943;-66
2021/07/13 01:11:26;;;;;;;16.60;11.60;;;;;;;18.45;95.90;99297.18;1747057;82;21037;-66
2021/07/13 01:14:10;;;;;;;14.33;10.18;;;;;;;18.44;95.96;99297.66;1747034;82;21479;-66
2021/07/13 01:16:51;;;;;;;11.22;9.75;;;;;;;18.43;96.07;99300.41;1726368;82;21027;-66
2021/07/13 01:19:55;;;;;;;11.25;8.93;;;;;;;18.42;96.10;99303.99;1746752;82;20977;-66
2021/07/13 01:22:31;;;;;;;13.55;9.80;;;;;;;18.41;95.76;99302.31;1746212;82;20970;-66
2021/07/13 01:25:41;;;;;;;10.75;9.75;;;;;;;18.35;95.43;99301.02;1746951;82;20970;-66
2021/07/13 01:28:12;;;;;;;10.05;8.83;;;;;;;18.34;95.49;99294.54;1746853;82;21042;-66
2021/07/13 01:30:42;;;;;;;10.32;8.78;;;;;;;18.32;95.46;99295.97;1750617;82;21146;-66
2021/07/13 01:33:24;;;;;;;15.25;9.28;;;;;;;18.30;95.61;99289.14;1746737;82;21616;-66
2021/07/13 01:36:10;;;;;;;18.32;9.78;;;;;;;18.28;95.59;99287.94;1747310;82;21531;-66
2021/07/13 01:38:39;;;;;;;14.00;9.58;;;;;;;18.25;96.11;99290.80;1750176;81;21073;-66
2021/07/13 01:41:09;;;;;;;29.80;9.93;;;;;;;18.25;96.40;99292.12;1747338;82;20950;-66
2021/07/13 01:43:38;;;;;;;11.60;9.13;;;;;;;18.24;96.44;99291.27;1747054;82;21059;-66
2021/07/13 01:46:06;;;;;;;10.03;9.13;;;;;;;18.24;96.19;99291.75;1746982;82;21589;-66
2021/07/13 01:48:34;;;;;;;11.43;9.40;;;;;;;18.21;95.51;99299.40;1746887;80;20978;-66
2021/07/13 01:51:03;;;;;;;11.05;9.88;;;;;;;18.19;95.00;99296.52;1747116;82;20923;-66
2021/07/13 01:53:32;;;;;;;12.55;9.45;;;;;;;18.17;94.66;99298.45;1746961;82;20990;-66
2021/07/13 01:55:58;;;;;;;13.30;9.18;;;;;;;18.14;95.11;99291.63;1746990;82;21545;-66
2021/07/13 01:58:28;;;;;;;10.68;9.60;;;;;;;18.12;95.08;99284.31;1746838;82;20939;-66
2021/07/13 02:00:58;;;;;;;18.02;9.45;;;;;;;18.10;94.98;99293.28;1746961;82;20935;-66
2021/07/13 02:03:26;;;;;;;12.18;10.23;;;;;;;18.05;94.87;99288.35;1745458;82;20987;-66
2021/07/13 02:05:56;;;;;;;10.88;9.65;;;;;;;18.02;94.99;99286.42;1758334;80;21488;-66
2021/07/13 02:08:22;;;;;;;9.83;8.85;;;;;;;18.01;95.13;99291.33;1763171;81;21290;-67
2021/07/13 02:10:49;;;;;;;15.63;9.43;;;;;;;18.01;95.41;99297.91;1763233;81;21000;-67
2021/07/13 02:13:19;;;;;;;10.72;9.78;;;;;;;18.01;95.44;99304.48;1763275;81;21011;-66
2021/07/13 02:15:47;;;;;;;10.85;9.83;;;;;;;18.01;95.56;99307.11;1763354;81;21086;-66
2021/07/13 02:18:14;;;;;;;20.35;9.88;;;;;;;18.03;95.52;99306.05;1763327;81;20919;-67
2021/07/13 02:20:40;;;;;;;13.53;9.95;;;;;;;18.04;95.52;99310.36;1763360;81;21108;-66
2021/07/13 02:23:07;;;;;;;15.60;10.18;;;;;;;18.05;95.46;99304.62;1763355;81;21067;-66
2021/07/13 02:25:35;;;;;;;13.32;10.60;;;;;;;18.05;95.63;99298.04;1763241;81;20919;-67
2021/07/13 02:28:19;;;;;;;10.70;9.75;;;;;;;18.07;95.69;99306.19;1763433;81;20955;-67
2021/07/13 02:30:49;;;;;;;10.72;9.73;;;;;;;18.10;95.86;99308.59;1763263;81;20951;-66
2021/07/13 02:33:21;;;;;;;11.68;10.18;;;;;;;18.14;95.47;99306.10;1763311;81;21503;-66
2021/07/13 02:35:52;;;;;;;10.78;9.55;;;;;;;18.17;95.33;99319.03;1762712;81;20990;-67
2021/07/13 02:38:19;;;;;;;10.28;9.23;;;;;;;18.19;95.26;99321.52;1763500;81;21043;-67
2021/07/13 02:40:48;;;;;;;24.45;10.45;;;;;;;18.19;94.40;99326.79;1763238;81;21002;-66
2021/07/13 02:43:15;;;;;;;11.00;9.78;;;;;;;18.17;93.95;99327.41;1763197;81;20987;-67
2021/07/13 02:45:42;;;;;;;9.45;8.63;;;;;;;18.17;93.64;99326.09;1763331;81;21131;-67
2021/07/13 02:48:11;;;;;;;14.60;9.33;;;;;;;18.18;93.77;99327.77;1763079;81;21104;-67
2021/07/13 02:50:38;;;;;;;12.73;9.83;;;;;;;18.19;94.26;99325.00;1763322;81;21019;-66
2021/07/13 02:53:08;;;;;;;10.03;9.05;;;;;;;18.25;94.31;99333.76;1763262;81;20927;-67
2021/07/13 02:55:36;;;;;;;10.25;9.18;;;;;;;18.31;94.27;99326.36;1763313;81;21396;-66
2021/07/13 02:58:03;;;;;;;14.18;9.68;;;;;;;18.37;94.14;99315.37;1763196;81;21198;-66
2021/07/13 03:00:30;;;;;;;14.33;8.98;;;;;;;18.43;93.90;99318.84;1763254;81;21479;-67
2021/07/13 03:02:56;;;;;;;13.32;9.53;;;;;;;18.45;93.35;99334.05;1763274;81;21435;-67
2021/07/13 03:05:25;;;;;;;14.10;9.75;;;;;;;18.45;92.97;99330.09;1757362;81;38715;-66
2021/07/13 03:07:52;;;;;;;16.80;10.80;;;;;;;18.43;93.00;99326.27;1746911;80;20939;-66
2021/07/13 03:10:21;;;;;;;10.60;9.60;;;;;;;18.46;93.15;99319.92;1747090;82;21121;-66
2021/07/13 03:12:48;;;;;;;17.67;9.78;;;;;;;18.47;93.41;99325.08;1746955;82;20975;-66
2021/07/13 03:15:15;;;;;;;17.77;9.95;;;;;;;18.52;93.71;99324.73;1747119;82;20999;-67
2021/07/13 03:17:41;;;;;;;12.35;9.78;;;;;;;18.57;93.83;99323.44;1746955;82;20986;-66
2021/07/13 03:20:09;;;;;;;12.45;9.65;;;;;;;18.65;93.69;99320.70;1747238;82;21030;-67
2021/07/13 03:22:39;;;;;;;12.68;9.08;;;;;;;18.72;93.46;99319.28;1746860;82;21529;-67
2021/07/13 03:25:09;;;;;;;10.80;8.95;;;;;;;18.79;93.43;99311.25;1746809;82;21038;-66
2021/07/13 03:27:37;;;;;;;10.90;8.83;;;;;;;18.87;93.00;99307.55;1746817;82;21021;-66
2021/07/13 03:30:05;;;;;;;11.08;9.93;;;;;;;18.95;92.66;99314.39;1746940;82;20943;-66
2021/07/13 03:32:32;;;;;;;9.85;8.85;;;;;;;19.00;92.25;99311.37;1746855;82;20951;-67
2021/07/13 03:35:00;;;;;;;11.00;9.00;;;;;;;19.06;91.98;99309.58;1725817;82;21170;-67
2021/07/13 03:37:27;;;;;;;12.18;9.40;;;;;;;19.10;91.78;99306.59;1750544;82;21403;-67
2021/07/13 03:39:54;;;;;;;12.18;10.23;;;;;;;19.14;91.43;99309.34;1750524;81;20991;-67
2021/07/13 03:42:22;;;;;;;17.07;9.68;;;;;;;19.18;91.15;99317.34;1747084;80;20986;-66
2021/07/13 03:44:48;;;;;;;14.28;9.60;;;;;;;19.21;90.81;99313.15;1747107;82;21042;-67
2021/07/13 03:47:15;;;;;;;10.80;9.80;;;;;;;19.26;90.48;99321.55;1746880;82;21778;-67
2021/07/13 03:49:42;;;;;;;15.60;9.63;;;;;;;19.31;90.24;99315.91;1747137;82;20947;-67
2021/07/13 03:52:09;;;;;;;13.60;9.23;;;;;;;19.37;90.01;99315.91;1746773;82;21066;-66
2021/07/13 03:54:37;;;;;;;17.65;10.25;;;;;;;19.39;89.94;99318.75;1747020;82;21549;-67
2021/07/13 03:57:05;;;;;;;12.82;9.10;;;;;;;19.41;89.47;99321.27;1747062;82;21396;-67
2021/07/13 03:59:31;;;;;;;10.03;9.03;;;;;;;19.45;89.43;99329.30;1750988;81;21128;-66
2021/07/13 04:01:58;;;;;;;13.68;9.30;;;;;;;19.51;89.54;99327.05;1746861;82;20999;-67
2021/07/13 04:04:26;;;;;;;13.03;10.82;;;;;;;19.59;89.59;99327.25;1746826;82;20903;-67
2021/07/13 04:06:52;;;;;;;16.85;10.20;;;;;;;19.67;89.42;99321.37;1749135;80;21522;-67
2021/07/13 04:09:19;;;;;;;12.65;10.63;;;;;;;19.74;89.01;99315.96;1749733;82;21002;-67
2021/07/13 04:11:46;;;;;;;11.93;10.30;;;;;;;19.82;88.62;99317.47;1749475;82;21148;-67
2021/07/13 04:14:15;;;;;;;11.48;10.15;;;;;;;19.92;88.60;99317.09;1749382;82;20927;-66
2021/07/13 04:16:41;;;;;;;12.95;11.63;;;;;;;20.02;88.41;99319.79;1749567;82;21029;-66
2021/07/13 04:19:08;;;;;;;15.95;10.58;;;;;;;20.13;88.25;99314.95;1749524;82;21469;-66
2021/07/13 04:21:35;;;;;;;16.65;11.50;;;;;;;20.24;87.90;99317.52;1749579;82;20951;-66
2021/07/13 04:24:02;;;;;;;25.97;11.10;;;;;;;20.38;87.35;99320.38;1749796;82;21834;-67
2021/07/13 04:26:28;;;;;;;12.80;10.13;;;;;;;20.51;87.00;99311.77;1749372;82;21042;-66
2021/07/13 04:28:54;;;;;;;17.70;10.82;;;;;;;20.64;86.43;99311.90;1749559;81;20939;-66
2021/07/13 04:31:21;;;;;;;22.70;12.68;;;;;;;20.78;86.47;99313.87;1749557;82;20971;-66
2021/07/13 04:33:48;;;;;;;26.07;12.50;;;;;;;20.92;86.19;99309.05;1749451;82;21124;-67
2021/07/13 04:36:15;;;;;;;19.95;11.30;;;;;;;21.08;85.64;99301.10;1749564;82;21079;-67
2021/07/13 04:38:41;;;;;;;31.95;13.35;;;;;;;21.22;84.88;99306.87;1749771;81;21466;-67
2021/07/13 04:41:08;;;;;;;30.62;14.03;;;;;;;21.37;84.93;99299.42;1749541;82;21055;-67
2021/07/13 04:43:35;;;;;;;15.88;12.18;;;;;;;21.53;84.37;99301.05;1749545;82;21403;-66
2021/07/13 04:46:01;;;;;;;37.35;13.22;;;;;;;21.94;83.10;99301.77;1749660;82;21475;-66
2021/07/13 04:48:29;;;;;;;16.35;11.78;;;;;;;22.60;82.50;99305.31;1749475;82;21150;-67
2021/07/13 04:50:57;;;;;;;15.45;12.53;;;;;;;23.45;78.92;99301.63;1749450;82;21038;-67
2021/07/13 04:53:23;;;;;;;15.40;11.50;;;;;;;24.34;77.12;99303.84;1749558;82;21385;-67
2021/07/13 04:55:50;;;;;;;17.60;11.00;;;;;;;25.20;73.88;99304.31;1749539;82;21103;-67
2021/07/13 04:58:16;;;;;;;13.25;12.00;;;;;;;26.02;69.64;99306.19;1749577;82;21408;-67
2021/07/13 05:00:43;;;;;;;21.97;12.13;;;;;;;26.71;66.45;99309.67;1749660;82;21099;-67
2021/07/13 05:03:10;;;;;;;11.43;10.48;;;;;;;27.32;64.08;99305.98;1749363;82;20943;-67
2021/07/13 05:05:36;;;;;;;12.25;10.50;;;;;;;27.87;60.79;99308.50;1749441;81;21013;-68
2021/07/13 05:08:04;;;;;;;11.60;10.30;;;;;;;28.30;58.53;99320.91;1749656;82;21442;-67
2021/07/13 05:10:31;;;;;;;12.03;10.23;;;;;;;28.64;57.11;99313.72;1749825;82;20991;-67
2021/07/13 05:12:59;;;;;;;17.75;11.15;;;;;;;28.97;55.76;99308.89;1749579;82;21462;-68
2021/07/13 05:15:25;;;;;;;11.73;10.23;;;;;;;29.27;54.21;99306.48;1749809;82;21404;-68
2021/07/13 05:17:52;;;;;;;21.70;10.88;;;;;;;29.56;53.19;99311.50;1749637;82;20990;-67
2021/07/13 05:20:20;;;;;;;12.43;10.53;;;;;;;29.80;52.89;99326.70;1749611;82;21482;-67
2021/07/13 05:22:47;;;;;;;31.82;12.15;;;;;;;30.07;51.60;99326.49;1748302;82;20998;-67
2021/07/13 05:25:15;;;;;;;18.10;10.60;;;;;;;30.31;50.77;99337.85;1749243;82;21045;-67
2021/07/13 05:27:42;;;;;;;18.60;10.30;;;;;;;30.53;51.14;99338.14;1736912;82;21045;-67
2021/07/13 05:30:10;;;;;;;23.75;11.80;;;;;;;30.80;49.48;99333.80;1744267;82;21002;-67
2021/07/13 05:32:37;;;;;;;15.08;10.48;;;;;;;31.02;48.59;99338.06;1749516;82;20943;-67
2021/07/13 05:35:05;;;;;;;11.00;9.88;;;;;;;31.17;47.61;99333.97;1749642;82;20990;-67
2021/07/13 05:37:33;;;;;;;14.35;10.03;;;;;;;31.34;47.11;99336.63;1749543;82;21288;-67
2021/07/13 05:40:02;;;;;;;27.20;10.43;;;;;;;31.49;46.57;99341.84;1719667;83;21050;-67
2021/07/13 05:42:28;;;;;;;11.57;10.03;;;;;;;31.69;45.99;99343.28;1720747;82;21478;-67
2021/07/13 05:44:55;;;;;;;21.42;10.75;;;;;;;31.82;45.45;99340.62;1705802;82;20943;-67
2021/07/13 05:47:22;;;;;;;24.75;11.30;;;;;;;31.93;45.56;99344.07;1746897;82;20935;-67
2021/07/13 05:49:49;;;;;;;15.03;11.00;;;;;;;32.00;45.37;99351.62;1749857;82;21464;-66
2021/07/13 05:52:15;;;;;;;15.43;10.58;;;;;;;32.09;44.47;99353.61;1749656;81;20943;-66
2021/07/13 05:54:42;;;;;;;13.25;11.22;;;;;;;32.18;44.30;99348.33;1749858;82;21413;-66
2021/07/13 05:57:08;;;;;;;10.72;9.83;;;;;;;32.23;44.76;99339.16;1741879;82;21537;-66
2021/07/13 05:59:35;;;;;;;26.75;10.60;;;;;;;32.27;44.00;99340.41;1749548;82;20971;-66
2021/07/13 06:02:01;;;;;;;14.13;8.38;;;;;;;32.26;43.88;99343.30;1749543;82;21885;-66
2021/07/13 06:04:28;;;;;;;15.85;8.63;;;;;;;32.09;43.88;99338.81;1749492;81;21034;-66
2021/07/13 06:06:54;;;;;;;8.60;7.40;;;;;;;31.85;43.79;99338.36;1747323;80;21010;-66
2021/07/13 06:09:22;;;;;;;20.92;7.67;;;;;;;31.69;43.64;99340.59;1749579;82;21021;-66
2021/07/13 06:11:50;;;;;;;31.40;8.73;;;;;;;31.51;44.34;99341.96;1749624;82;20939;-67
2021/07/13 06:14:17;;;;;;;38.38;8.48;;;;;;;31.41;44.33;99340.66;1749915;82;21141;-66
2021/07/13 06:16:44;;;;;;;7.53;6.87;;;;;;;31.34;45.31;99343.86;1729418;82;21036;-66
2021/07/13 06:19:10;;;;;;;17.87;7.65;;;;;;;31.26;45.16;99350.73;1734475;82;21478;-66
2021/07/13 06:21:37;;;;;;;10.03;6.45;;;;;;;31.12;45.26;99347.16;1740696;82;21632;-68
2021/07/13 06:24:04;;;;;;;17.73;6.45;;;;;;;31.02;46.42;99345.30;1743704;82;20995;-67
2021/07/13 06:26:31;;;;;;;16.77;6.75;;;;;;;30.96;45.77;99344.25;1683767;85;21068;-67
2021/07/13 06:28:57;;;;;;;41.23;8.25;;;;;;;30.94;45.84;99347.64;1683942;84;21069;-67
2021/07/13 06:31:25;;;;;;;7.58;5.45;;;;;;;30.94;46.28;99346.81;1694302;84;21006;-67
2021/07/13 06:33:51;;;;;;;19.02;6.55;;;;;;;30.88;45.96;99341.71;1684225;85;21005;-68
2021/07/13 06:36:17;;;;;;;10.43;5.75;;;;;;;30.69;46.92;99347.27;1688358;83;21053;-67
2021/07/13 06:38:45;;;;;;;14.70;5.72;;;;;;;30.54;47.64;99349.20;1672044;85;21549;-67
2021/07/13 06:41:12;;;;;;;11.00;5.83;;;;;;;30.41;47.02;99347.21;1655811;85;21052;-67
2021/07/13 06:43:39;;;;;;;9.00;6.05;;;;;;;30.25;46.99;99347.49;1656187;86;21061;-67
2021/07/13 06:46:05;;;;;;;30.75;7.87;;;;;;;30.14;47.76;99354.73;1673367;84;21478;-67
2021/07/13 06:48:32;;;;;;;22.62;6.28;;;;;;;30.05;47.23;99352.67;1656380;86;21481;-68
2021/07/13 06:50:58;;;;;;;16.82;7.37;;;;;;;29.93;47.61;99348.81;1657669;85;21708;-69
2021/07/13 06:53:25;;;;;;;8.18;5.12;;;;;;;29.83;48.07;99346.94;1672914;84;21033;-67
2021/07/13 06:55:52;;;;;;;8.25;5.83;;;;;;;29.71;48.09;99351.16;1656341;86;21466;-67
2021/07/13 06:58:18;;;;;;;21.87;6.75;;;;;;;29.57;48.17;99352.03;1656148;86;21568;-68
2021/07/13 07:00:44;;;;;;;32.48;7.50;;;;;;;29.43;49.23;99349.67;1673043;85;20984;-67
2021/07/13 07:03:11;;;;;;;17.30;6.12;;;;;;;29.29;49.23;99346.48;1656261;85;21169;-67
2021/07/13 07:05:37;;;;;;;30.37;8.45;;;;;;;29.13;48.35;99350.20;1672900;85;21596;-67
2021/07/13 07:08:06;;;;;;;17.07;6.47;;;;;;;29.00;48.66;99352.16;1663189;85;20961;-67
2021/07/13 07:10:35;;;;;;;15.23;5.92;;;;;;;28.88;48.71;99352.31;1687567;85;21030;-67
2021/07/13 07:13:02;;;;;;;8.60;5.80;;;;;;;28.76;48.71;99353.25;1687640;84;21026;-65
2021/07/13 07:15:29;;;;;;;7.85;5.33;;;;;;;28.65;49.50;99349.66;1687484;85;21179;-66
2021/07/13 07:17:56;;;;;;;9.55;5.22;;;;;;;28.58;49.44;99347.38;1687360;85;20963;-65
2021/07/13 07:20:27;;;;;;;18.92;5.83;;;;;;;28.50;49.84;99344.80;1687546;84;20983;-68
2021/07/13 07:22:57;;;;;;;24.75;7.37;;;;;;;28.44;49.50;99338.32;1687647;85;20991;-65
2021/07/13 07:25:27;;;;;;;6.80;5.70;;;;;;;28.36;49.54;99335.73;1687641;85;20990;-66
2021/07/13 07:27:56;;;;;;;6.15;5.30;;;;;;;28.28;49.24;99336.30;1687605;84;21101;-67
2021/07/13 07:30:22;;;;;;;5.95;5.50;;;;;;;28.18;49.23;99331.15;1687543;85;21031;-67
2021/07/13 07:32:48;;;;;;;27.45;8.33;;;;;;;28.04;49.65;99330.09;1687570;84;21022;-65
2021/07/13 07:35:15;;;;;;;14.90;6.58;;;;;;;27.99;49.67;99324.95;1687676;84;21537;-66
2021/07/13 07:37:42;;;;;;;18.75;6.40;;;;;;;27.95;49.85;99331.19;1687456;84;21578;-65
2021/07/13 07:40:17;;;;;;;13.68;6.12;;;;;;;27.94;49.98;99333.52;1687515;85;21107;-66
2021/07/13 07:42:43;;;;;;;6.58;5.95;;;;;;;27.97;50.02;99329.67;1687589;84;20967;-66
2021/07/13 07:45:20;;;;;;;34.23;8.10;;;;;;;28.01;50.50;99327.77;1689008;83;21541;-66
2021/07/13 07:47:48;;;;;;;9.45;6.28;;;;;;;28.01;50.80;99326.44;1702566;83;21026;-66
2021/07/13 07:50:16;;;;;;;12.68;6.58;;;;;;;27.95;50.99;99329.84;1693653;83;20978;-66
2021/07/13 07:52:42;;;;;;;6.30;5.70;;;;;;;27.88;51.30;99322.20;1687491;85;21175;-66
2021/07/13 07:55:11;;;;;;;7.78;6.00;;;;;;;27.86;51.59;99330.06;1687468;85;20994;-66
2021/07/13 07:57:37;;;;;;;6.62;6.20;;;;;;;27.89;51.46;99319.02;1687716;85;21049;-65
2021/07/13 08:00:07;;;;;;;6.12;5.50;;;;;;;27.90;50.91;99316.67;1689278;83;21089;-66
2021/07/13 08:02:35;;;;;;;8.20;5.87;;;;;;;27.90;50.61;99317.52;1697468;83;20949;-65
2021/07/13 08:05:02;;;;;;;6.72;6.17;;;;;;;27.90;51.08;99318.84;1716157;83;21840;-65
2021/07/13 08:07:30;;;;;;;11.73;6.42;;;;;;;27.93;51.24;99317.66;1716088;83;21513;-65
2021/07/13 08:09:56;;;;;;;11.33;6.37;;;;;;;27.93;51.20;99314.98;1714068;83;21010;-66
2021/07/13 08:12:24;;;;;;;6.60;5.47;;;;;;;27.92;51.07;99310.66;1700442;83;20983;-65
2021/07/13 08:14:51;;;;;;;6.58;5.78;;;;;;;27.89;50.39;99315.84;1692098;83;21081;-65
2021/07/13 08:17:19;;;;;;;6.42;5.90;;;;;;;27.88;50.76;99310.17;1701145;83;21702;-66
2021/07/13 08:19:47;;;;;;;5.97;5.58;;;;;;;27.93;51.33;99314.98;1707697;83;21541;-65
2021/07/13 08:22:16;;;;;;;6.97;6.05;;;;;;;27.96;51.20;99315.47;1710956;83;20966;-66
2021/07/13 08:24:44;;;;;;;7.60;5.62;;;;;;;27.96;51.25;99309.30;1702971;83;21624;-66
2021/07/13 08:27:11;;;;;;;7.80;6.20;;;;;;;28.00;50.71;99311.41;1694084;83;21058;-65
2021/07/13 08:29:37;;;;;;;5.00;4.60;;;;;;;28.10;51.48;99316.02;1709030;83;21136;-65
2021/07/13 08:32:04;;;;;;;8.08;4.55;;;;;;;28.23;50.00;99311.93;1691541;83;21062;-66
2021/07/13 08:34:33;;;;;;;6.12;4.45;;;;;;;28.31;49.37;99316.72;1694074;83;21140;-66
2021/07/13 08:36:59;;;;;;;5.78;5.00;;;;;;;28.36;48.20;99314.34;1693969;83;21074;-65
2021/07/13 08:39:26;;;;;;;11.55;5.05;;;;;;;28.38;47.22;99310.95;1703886;83;21431;-66
2021/07/13 08:41:54;;;;;;;8.23;6.58;;;;;;;28.38;47.40;99314.95;1705002;83;21139;-66
2021/07/13 08:44:22;;;;;;;5.00;4.50;;;;;;;28.42;47.57;99321.61;1698477;83;21074;-65
2021/07/13 08:46:49;;;;;;;6.75;6.05;;;;;;;28.51;46.75;99318.88;1716671;83;21053;-66
2021/07/13 08:49:15;;;;;;;14.10;5.03;;;;;;;28.62;46.69;99319.25;1716380;83;21026;-66
2021/07/13 08:51:42;;;;;;;10.00;4.87;;;;;;;28.70;46.76;99322.36;1698758;83;21523;-66
2021/07/13 08:54:09;;;;;;;17.50;5.58;;;;;;;28.80;46.35;99307.70;1687634;85;21137;-68
2021/07/13 08:56:37;;;;;;;15.30;5.22;;;;;;;28.89;46.02;99311.64;1661938;85;20987;-66
2021/07/13 08:59:05;;;;;;;17.52;5.97;;;;;;;28.95;46.40;99306.39;1687549;85;20974;-66
2021/07/13 09:01:31;;;;;;;11.60;5.47;;;;;;;29.04;46.96;99314.63;1687181;83;21562;-66
2021/07/13 09:04:05;;;;;;;17.42;5.42;;;;;;;29.14;46.09;99317.88;1687675;85;21065;-66
2021/07/13 09:06:55;;;;;;;8.85;4.70;;;;;;;29.22;46.13;99310.73;1687585;84;21114;-67
2021/07/13 09:09:26;;;;;;;52.65;8.48;;;;;;;29.29;45.88;99305.80;1687710;84;21022;-66
2021/07/13 09:12:18;;;;;;;15.80;7.12;;;;;;;29.36;45.67;99300.53;1687634;84;20982;-66
2021/07/13 09:15:00;;;;;;;7.33;4.42;;;;;;;29.42;45.21;99303.30;1687585;84;21030;-66
2021/07/13 09:17:43;;;;;;;27.70;6.30;;;;;;;29.52;44.72;99303.01;1687739;84;21057;-65
2021/07/13 09:20:27;;;;;;;9.98;4.72;;;;;;;29.55;44.39;99301.80;1686514;85;21131;-66
2021/07/13 09:23:04;;;;;;;13.68;4.67;;;;;;;29.61;44.87;99299.69;1686156;85;21049;-67
2021/07/13 09:25:44;;;;;;;6.85;4.35;;;;;;;29.68;43.75;99298.75;1687445;85;21125;-65
2021/07/13 09:28:16;;;;;;;5.08;4.62;;;;;;;29.74;43.16;99300.67;1686476;85;20986;-66
2021/07/13 09:30:56;;;;;;;5.67;4.33;;;;;;;29.75;43.38;99308.20;1687162;85;21026;-66
2021/07/13 09:33:33;;;;;;;6.95;4.78;;;;;;;29.78;43.54;99307.30;1687298;84;21103;-66
2021/07/13 09:36:12;;;;;;;12.68;5.28;;;;;;;29.82;43.13;99305.06;1686838;85;21061;-66
2021/07/13 09:38:42;;;;;;;11.20;5.35;;;;;;;29.79;42.80;99312.97;1687324;84;21481;-66
2021/07/13 09:41:16;;;;;;;11.83;5.47;;;;;;;29.79;42.81;99312.97;1687599;85;21565;-67
2021/07/13 09:44:04;;;;;;;6.70;5.05;;;;;;;29.83;42.96;99308.06;1687876;85;21088;-66
2021/07/13 09:46:41;;;;;;;10.95;4.50;;;;;;;29.87;42.74;99305.84;1687597;85;21160;-67
2021/07/13 09:49:21;;;;;;;9.18;4.70;;;;;;;29.88;43.00;99299.45;1687412;85;21061;-66
2021/07/13 09:52:00;;;;;;;30.00;5.78;;;;;;;29.92;43.25;99306.10;1687704;84;21586;-66
2021/07/13 09:54:43;;;;;;;21.75;5.53;;;;;;;29.97;43.06;99307.70;1687788;85;21069;-66
2021/07/13 09:57:22;;;;;;;9.93;5.17;;;;;;;30.05;43.17;99307.08;1662536;85;21076;-67
2021/07/13 09:59:52;;;;;;;5.92;5.22;;;;;;;30.14;42.83;99306.45;1687660;84;21966;-66
2021/07/13 10:02:23;;;;;;;9.45;4.90;;;;;;;30.23;42.44;99318.69;1687510;84;21022;-67
2021/07/13 10:04:50;;;;;;;19.60;6.08;;;;;;;30.28;42.27;99313.58;1688610;83;21022;-67
2021/07/13 10:07:19;;;;;;;4.60;4.30;;;;;;;30.31;41.87;99302.46;1691232;83;21511;-66
2021/07/13 10:09:48;;;;;;;7.75;4.47;;;;;;;30.34;42.05;99305.27;1704946;84;21019;-66
2021/07/13 10:12:18;;;;;;;40.65;7.87;;;;;;;30.36;42.15;99306.73;1683611;84;21137;-66
2021/07/13 10:14:47;;;;;;;16.45;5.85;;;;;;;30.38;42.90;99313.22;1676478;85;20955;-66
2021/07/13 10:17:15;;;;;;;24.07;6.17;;;;;;;30.39;42.08;99314.37;1677221;85;21026;-66
2021/07/13 10:19:53;;;;;;;11.95;5.30;;;;;;;30.44;42.03;99312.45;1677012;85;21003;-67
2021/07/13 10:22:20;;;;;;;11.45;5.37;;;;;;;30.49;42.22;99311.37;1677388;85;21035;-66
2021/07/13 10:24:51;;;;;;;5.42;4.90;;;;;;;30.53;41.66;99311.30;1677071;85;21577;-65
2021/07/13 10:27:28;;;;;;;18.75;5.60;;;;;;;30.58;41.88;99312.89;1677213;85;21634;-66
2021/07/13 10:29:57;;;;;;;6.78;4.60;;;;;;;30.64;41.87;99309.95;1658306;86;21482;-65
2021/07/13 10:32:30;;;;;;;23.30;6.55;;;;;;;30.72;41.63;99311.14;1692391;84;20981;-66
2021/07/13 10:35:00;;;;;;;29.65;6.85;;;;;;;30.76;41.22;99307.05;1692634;84;20976;-67
2021/07/13 10:37:35;;;;;;;6.62;4.85;;;;;;;30.79;41.57;99309.31;1692391;84;22012;-67
2021/07/13 10:40:10;;;;;;;9.28;5.78;;;;;;;30.82;41.52;99306.23;1692545;84;21545;-65
2021/07/13 10:42:45;;;;;;;7.72;5.33;;;;;;;30.77;41.45;99314.91;1692237;84;21556;-66
2021/07/13 10:45:35;;;;;;;25.52;6.67;;;;;;;30.68;41.18;99306.68;1692636;84;21017;-66
2021/07/13 10:48:20;;;;;;;7.03;5.33;;;;;;;30.63;41.20;99304.26;1692649;84;21468;-66
2021/07/13 10:50:57;;;;;;;7.53;5.28;;;;;;;30.66;41.43;99303.36;1691923;84;23293;-67
2021/07/13 10:53:29;;;;;;;14.07;5.83;;;;;;;30.77;41.74;99301.48;1693008;83;20990;-67
2021/07/13 10:56:01;;;;;;;6.10;5.60;;;;;;;30.89;42.28;99296.89;1717572;83;21439;-67
2021/07/13 10:58:43;;;;;;;23.00;6.47;;;;;;;31.05;41.96;99295.21;1717456;83;21682;-67
2021/07/13 11:01:24;;;;;;;18.30;8.25;;;;;;;31.05;41.96;99295.21;1722302;82;21697;-67
2021/07/13 11:03:50;;;;;;;6.12;5.45;;;;;;;31.18;41.40;99298.81;1741722;82;21335;-67
2021/07/13 11:06:19;;;;;;;10.05;6.20;;;;;;;31.28;40.67;99302.48;1717040;83;20974;-67
2021/07/13 11:08:53;;;;;;;14.93;6.58;;;;;;;31.31;39.57;99295.37;1720836;82;20962;-67
2021/07/13 11:11:26;;;;;;;15.90;6.45;;;;;;;31.32;39.42;99295.68;1719752;83;21022;-65
2021/07/13 11:14:04;;;;;;;5.60;5.10;;;;;;;31.36;39.62;99288.88;1716272;83;21014;-66
2021/07/13 11:16:40;;;;;;;7.08;5.15;;;;;;;31.43;39.45;99291.05;1726851;82;20939;-67
2021/07/13 11:19:17;;;;;;;19.95;6.75;;;;;;;31.47;39.01;99293.66;1746396;82;21033;-66
2021/07/13 11:21:48;;;;;;;5.53;5.00;;;;;;;31.48;38.87;99290.45;1698964;82;21061;-67
2021/07/13 11:24:18;;;;;;;20.92;6.45;;;;;;;31.50;37.44;99288.39;1723120;82;21026;-66
2021/07/13 11:26:49;;;;;;;9.73;5.80;;;;;;;31.49;38.78;99287.56;1723469;82;20994;-67
2021/07/13 11:29:23;;;;;;;6.03;5.07;;;;;;;31.51;38.42;99283.34;1723058;82;21157;-67
2021/07/13 11:32:02;;;;;;;9.65;5.00;;;;;;;31.54;38.61;99284.80;1747304;81;21478;-67
2021/07/13 11:34:35;;;;;;;6.17;5.28;;;;;;;31.57;38.06;99283.87;1731582;82;21053;-66
2021/07/13 11:37:05;;;;;;;9.18;5.60;;;;;;;31.60;38.03;99282.09;1722717;82;20959;-66
2021/07/13 11:39:38;;;;;;;7.47;5.30;;;;;;;31.63;38.88;99281.70;1719310;80;21071;-67